sensor_id;sensor_type;location;lat;lon;timestamp;P1;durP1;ratioP1;P2;durP2;ratioP2
49241;SDS011;35079;52.704;13.814;2023-02-15T00:00:19;49.80;;;24.30;;
49241;SDS011;35079;52.704;13.814;2023-02-15T00:02:45;52.97;;;26.58;;
49241;SDS011;35079;52.704;13.814;2023-02-15T00:05:11;58.20;;;27.05;;
49241;SDS011;35079;52.704;13.814;2023-02-15T00:07:36;49.15;;;25.63;;
49241;SDS011;35079;52.704;13.814;2023-02-15T00:10:02;50.63;;;25.45;;
49241;SDS011;35079;52.704;13.814;2023-02-15T00:12:29;48.55;;;23.90;;
49241;SDS011;35079;52.704;13.814;2023-02-15T00:14:54;42.28;;;21.42;;
49241;SDS011;35079;52.704;13.814;2023-02-15T00:17:20;40.53;;;20.52;;
49241;SDS011;35079;52.704;13.814;2023-02-15T00:19:46;39.42;;;19.70;;
49241;SDS011;35079;52.704;13.814;2023-02-15T00:22:12;40.25;;;19.90;;
49241;SDS011;35079;52.704;13.814;2023-02-15T00:24:37;39.42;;;19.65;;
49241;SDS011;35079;52.704;13.814;2023-02-15T00:27:03;36.88;;;18.25;;
49241;SDS011;35079;52.704;13.814;2023-02-15T00:29:29;36.65;;;17.20;;
49241;SDS011;35079;52.704;13.814;2023-02-15T00:31:54;37.45;;;18.08;;
49241;SDS011;35079;52.704;13.814;2023-02-15T00:34:21;37.70;;;17.88;;
49241;SDS011;35079;52.704;13.814;2023-02-15T00:36:48;36.72;;;18.67;;
49241;SDS011;35079;52.704;13.814;2023-02-15T00:39:15;39.67;;;19.30;;
49241;SDS011;35079;52.704;13.814;2023-02-15T00:41:41;35.10;;;17.77;;
49241;SDS011;35079;52.704;13.814;2023-02-15T00:44:07;42.08;;;19.50;;
49241;SDS011;35079;52.704;13.814;2023-02-15T00:46:33;37.22;;;17.48;;
49241;SDS011;35079;52.704;13.814;2023-02-15T00:48:59;37.47;;;18.90;;
49241;SDS011;35079;52.704;13.814;2023-02-15T00:51:24;35.83;;;18.02;;
49241;SDS011;35079;52.704;13.814;2023-02-15T00:53:50;38.08;;;17.63;;
49241;SDS011;35079;52.704;13.814;2023-02-15T00:56:17;39.85;;;18.63;;
49241;SDS011;35079;52.704;13.814;2023-02-15T00:58:44;36.97;;;17.50;;
49241;SDS011;35079;52.704;13.814;2023-02-15T01:01:10;37.30;;;17.83;;
49241;SDS011;35079;52.704;13.814;2023-02-15T01:03:38;36.08;;;18.55;;
49241;SDS011;35079;52.704;13.814;2023-02-15T01:06:06;37.53;;;18.48;;
49241;SDS011;35079;52.704;13.814;2023-02-15T01:08:32;45.55;;;21.65;;
49241;SDS011;35079;52.704;13.814;2023-02-15T01:11:04;41.38;;;20.48;;
49241;SDS011;35079;52.704;13.814;2023-02-15T01:13:33;42.05;;;18.85;;
49241;SDS011;35079;52.704;13.814;2023-02-15T01:16:00;38.67;;;18.85;;
49241;SDS011;35079;52.704;13.814;2023-02-15T01:18:26;44.55;;;21.25;;
49241;SDS011;35079;52.704;13.814;2023-02-15T01:20:51;48.60;;;22.98;;
49241;SDS011;35079;52.704;13.814;2023-02-15T01:23:17;54.00;;;24.58;;
49241;SDS011;35079;52.704;13.814;2023-02-15T01:25:43;56.13;;;24.50;;
49241;SDS011;35079;52.704;13.814;2023-02-15T01:28:09;50.95;;;24.42;;
49241;SDS011;35079;52.704;13.814;2023-02-15T01:30:35;50.10;;;24.13;;
49241;SDS011;35079;52.704;13.814;2023-02-15T01:33:00;51.55;;;23.98;;
49241;SDS011;35079;52.704;13.814;2023-02-15T01:35:26;54.88;;;24.33;;
49241;SDS011;35079;52.704;13.814;2023-02-15T01:37:53;53.42;;;24.58;;
49241;SDS011;35079;52.704;13.814;2023-02-15T01:40:20;61.42;;;26.58;;
49241;SDS011;35079;52.704;13.814;2023-02-15T01:42:49;58.63;;;25.33;;
49241;SDS011;35079;52.704;13.814;2023-02-15T01:47:48;52.08;;;23.48;;
49241;SDS011;35079;52.704;13.814;2023-02-15T01:50:28;57.75;;;25.80;;
49241;SDS011;35079;52.704;13.814;2023-02-15T01:55:58;46.28;;;21.92;;
49241;SDS011;35079;52.704;13.814;2023-02-15T01:58:27;58.38;;;25.60;;
49241;SDS011;35079;52.704;13.814;2023-02-15T02:00:54;54.58;;;24.40;;
49241;SDS011;35079;52.704;13.814;2023-02-15T02:03:36;60.83;;;25.23;;
49241;SDS011;35079;52.704;13.814;2023-02-15T02:06:04;57.63;;;24.85;;
49241;SDS011;35079;52.704;13.814;2023-02-15T02:08:32;61.40;;;26.20;;
49241;SDS011;35079;52.704;13.814;2023-02-15T02:10:57;55.72;;;24.85;;
49241;SDS011;35079;52.704;13.814;2023-02-15T02:13:23;54.05;;;23.63;;
49241;SDS011;35079;52.704;13.814;2023-02-15T02:16:00;60.40;;;25.05;;
49241;SDS011;35079;52.704;13.814;2023-02-15T02:21:39;45.53;;;22.33;;
49241;SDS011;35079;52.704;13.814;2023-02-15T02:32:10;50.78;;;23.02;;
49241;SDS011;35079;52.704;13.814;2023-02-15T02:43:46;60.90;;;25.30;;
49241;SDS011;35079;52.704;13.814;2023-02-15T02:45:59;62.67;;;26.60;;
49241;SDS011;35079;52.704;13.814;2023-02-15T02:48:38;61.78;;;25.42;;
49241;SDS011;35079;52.704;13.814;2023-02-15T02:51:04;55.08;;;24.92;;
49241;SDS011;35079;52.704;13.814;2023-02-15T02:53:30;56.47;;;25.63;;
49241;SDS011;35079;52.704;13.814;2023-02-15T02:56:03;59.42;;;26.25;;
49241;SDS011;35079;52.704;13.814;2023-02-15T02:58:37;63.42;;;27.83;;
49241;SDS011;35079;52.704;13.814;2023-02-15T03:03:49;65.20;;;27.77;;
49241;SDS011;35079;52.704;13.814;2023-02-15T03:06:23;59.80;;;26.70;;
49241;SDS011;35079;52.704;13.814;2023-02-15T03:09:03;60.78;;;27.08;;
49241;SDS011;35079;52.704;13.814;2023-02-15T03:11:46;68.75;;;28.75;;
49241;SDS011;35079;52.704;13.814;2023-02-15T03:14:13;65.70;;;28.27;;
49241;SDS011;35079;52.704;13.814;2023-02-15T03:16:41;63.15;;;27.00;;
49241;SDS011;35079;52.704;13.814;2023-02-15T03:19:44;66.28;;;26.83;;
49241;SDS011;35079;52.704;13.814;2023-02-15T03:22:05;69.68;;;28.25;;
49241;SDS011;35079;52.704;13.814;2023-02-15T03:24:37;62.15;;;27.70;;
49241;SDS011;35079;52.704;13.814;2023-02-15T03:27:17;63.55;;;27.85;;
49241;SDS011;35079;52.704;13.814;2023-02-15T03:29:46;69.47;;;28.90;;
49241;SDS011;35079;52.704;13.814;2023-02-15T03:32:14;62.05;;;27.50;;
49241;SDS011;35079;52.704;13.814;2023-02-15T03:34:41;60.78;;;28.02;;
49241;SDS011;35079;52.704;13.814;2023-02-15T03:37:15;65.05;;;27.75;;
49241;SDS011;35079;52.704;13.814;2023-02-15T03:39:55;68.63;;;28.17;;
49241;SDS011;35079;52.704;13.814;2023-02-15T03:42:51;66.97;;;28.73;;
49241;SDS011;35079;52.704;13.814;2023-02-15T03:45:25;63.70;;;27.65;;
49241;SDS011;35079;52.704;13.814;2023-02-15T03:47:55;63.15;;;28.45;;
49241;SDS011;35079;52.704;13.814;2023-02-15T03:50:26;64.70;;;27.55;;
49241;SDS011;35079;52.704;13.814;2023-02-15T03:53:14;61.33;;;27.00;;
49241;SDS011;35079;52.704;13.814;2023-02-15T03:55:46;61.88;;;27.88;;
49241;SDS011;35079;52.704;13.814;2023-02-15T03:58:12;63.25;;;27.83;;
49241;SDS011;35079;52.704;13.814;2023-02-15T04:01:00;60.13;;;27.17;;
49241;SDS011;35079;52.704;13.814;2023-02-15T04:03:55;62.45;;;27.10;;
49241;SDS011;35079;52.704;13.814;2023-02-15T04:06:25;60.25;;;26.60;;
49241;SDS011;35079;52.704;13.814;2023-02-15T04:08:50;65.82;;;30.00;;
49241;SDS011;35079;52.704;13.814;2023-02-15T04:11:34;66.68;;;28.88;;
49241;SDS011;35079;52.704;13.814;2023-02-15T04:14:00;61.80;;;26.40;;
49241;SDS011;35079;52.704;13.814;2023-02-15T04:16:47;60.92;;;27.13;;
49241;SDS011;35079;52.704;13.814;2023-02-15T04:19:13;63.70;;;25.63;;
49241;SDS011;35079;52.704;13.814;2023-02-15T04:21:57;63.25;;;27.55;;
49241;SDS011;35079;52.704;13.814;2023-02-15T04:24:41;66.90;;;27.77;;
49241;SDS011;35079;52.704;13.814;2023-02-15T04:27:25;69.53;;;28.90;;
49241;SDS011;35079;52.704;13.814;2023-02-15T04:29:50;61.75;;;27.67;;
49241;SDS011;35079;52.704;13.814;2023-02-15T04:32:16;71.00;;;27.35;;
49241;SDS011;35079;52.704;13.814;2023-02-15T04:34:42;67.00;;;28.02;;
49241;SDS011;35079;52.704;13.814;2023-02-15T04:37:07;63.42;;;26.83;;
49241;SDS011;35079;52.704;13.814;2023-02-15T04:39:33;63.60;;;26.80;;
49241;SDS011;35079;52.704;13.814;2023-02-15T04:41:58;69.10;;;28.73;;
49241;SDS011;35079;52.704;13.814;2023-02-15T04:44:24;67.00;;;26.95;;
49241;SDS011;35079;52.704;13.814;2023-02-15T04:46:49;63.17;;;27.73;;
49241;SDS011;35079;52.704;13.814;2023-02-15T04:49:15;61.50;;;26.95;;
49241;SDS011;35079;52.704;13.814;2023-02-15T04:51:40;63.30;;;27.55;;
49241;SDS011;35079;52.704;13.814;2023-02-15T04:54:06;64.15;;;26.83;;
49241;SDS011;35079;52.704;13.814;2023-02-15T04:56:32;61.60;;;25.77;;
49241;SDS011;35079;52.704;13.814;2023-02-15T04:58:59;57.25;;;25.45;;
49241;SDS011;35079;52.704;13.814;2023-02-15T05:01:25;61.92;;;27.35;;
49241;SDS011;35079;52.704;13.814;2023-02-15T05:03:51;63.83;;;26.42;;
49241;SDS011;35079;52.704;13.814;2023-02-15T05:06:16;61.40;;;27.38;;
49241;SDS011;35079;52.704;13.814;2023-02-15T05:08:43;52.80;;;24.05;;
49241;SDS011;35079;52.704;13.814;2023-02-15T05:11:09;59.83;;;26.90;;
49241;SDS011;35079;52.704;13.814;2023-02-15T05:13:34;60.65;;;27.48;;
49241;SDS011;35079;52.704;13.814;2023-02-15T05:16:00;57.40;;;25.73;;
49241;SDS011;35079;52.704;13.814;2023-02-15T05:18:26;60.50;;;26.08;;
49241;SDS011;35079;52.704;13.814;2023-02-15T05:20:51;57.03;;;26.33;;
49241;SDS011;35079;52.704;13.814;2023-02-15T05:23:17;59.53;;;26.95;;
49241;SDS011;35079;52.704;13.814;2023-02-15T05:25:46;56.17;;;24.63;;
49241;SDS011;35079;52.704;13.814;2023-02-15T05:28:31;59.05;;;24.92;;
49241;SDS011;35079;52.704;13.814;2023-02-15T05:31:07;59.17;;;26.10;;
49241;SDS011;35079;52.704;13.814;2023-02-15T05:33:37;61.75;;;27.50;;
49241;SDS011;35079;52.704;13.814;2023-02-15T05:36:04;59.75;;;26.23;;
49241;SDS011;35079;52.704;13.814;2023-02-15T05:38:30;67.30;;;27.30;;
49241;SDS011;35079;52.704;13.814;2023-02-15T05:40:56;64.70;;;27.92;;
49241;SDS011;35079;52.704;13.814;2023-02-15T05:43:22;60.38;;;26.67;;
49241;SDS011;35079;52.704;13.814;2023-02-15T05:45:48;64.28;;;27.98;;
49241;SDS011;35079;52.704;13.814;2023-02-15T05:48:15;60.15;;;28.05;;
49241;SDS011;35079;52.704;13.814;2023-02-15T05:50:41;66.20;;;29.27;;
49241;SDS011;35079;52.704;13.814;2023-02-15T05:53:07;67.63;;;29.67;;
49241;SDS011;35079;52.704;13.814;2023-02-15T05:55:33;61.58;;;28.88;;
49241;SDS011;35079;52.704;13.814;2023-02-15T05:57:59;67.03;;;29.40;;
49241;SDS011;35079;52.704;13.814;2023-02-15T06:00:24;114.32;;;46.83;;
49241;SDS011;35079;52.704;13.814;2023-02-15T06:02:50;95.00;;;39.38;;
49241;SDS011;35079;52.704;13.814;2023-02-15T06:05:15;75.93;;;31.48;;
49241;SDS011;35079;52.704;13.814;2023-02-15T06:07:44;69.10;;;30.48;;
49241;SDS011;35079;52.704;13.814;2023-02-15T06:10:10;72.95;;;30.38;;
49241;SDS011;35079;52.704;13.814;2023-02-15T06:12:36;62.25;;;27.17;;
49241;SDS011;35079;52.704;13.814;2023-02-15T06:15:02;68.10;;;29.55;;
49241;SDS011;35079;52.704;13.814;2023-02-15T06:17:29;68.18;;;29.23;;
49241;SDS011;35079;52.704;13.814;2023-02-15T06:19:54;68.30;;;29.60;;
49241;SDS011;35079;52.704;13.814;2023-02-15T06:22:20;67.47;;;30.25;;
49241;SDS011;35079;52.704;13.814;2023-02-15T06:24:46;69.05;;;28.65;;
49241;SDS011;35079;52.704;13.814;2023-02-15T06:27:12;74.68;;;32.60;;
49241;SDS011;35079;52.704;13.814;2023-02-15T06:29:38;74.55;;;31.70;;
49241;SDS011;35079;52.704;13.814;2023-02-15T06:32:03;72.97;;;30.60;;
49241;SDS011;35079;52.704;13.814;2023-02-15T06:34:29;79.20;;;32.75;;
49241;SDS011;35079;52.704;13.814;2023-02-15T06:36:55;75.05;;;32.63;;
49241;SDS011;35079;52.704;13.814;2023-02-15T06:39:21;82.90;;;35.17;;
49241;SDS011;35079;52.704;13.814;2023-02-15T06:41:47;79.68;;;33.88;;
49241;SDS011;35079;52.704;13.814;2023-02-15T06:44:12;82.45;;;32.90;;
49241;SDS011;35079;52.704;13.814;2023-02-15T06:46:38;81.30;;;33.53;;
49241;SDS011;35079;52.704;13.814;2023-02-15T06:49:04;80.43;;;34.40;;
49241;SDS011;35079;52.704;13.814;2023-02-15T06:51:29;88.35;;;35.72;;
49241;SDS011;35079;52.704;13.814;2023-02-15T06:53:55;89.88;;;35.78;;
49241;SDS011;35079;52.704;13.814;2023-02-15T06:56:21;80.00;;;32.10;;
49241;SDS011;35079;52.704;13.814;2023-02-15T06:58:46;83.47;;;33.53;;
49241;SDS011;35079;52.704;13.814;2023-02-15T07:01:14;89.22;;;35.80;;
49241;SDS011;35079;52.704;13.814;2023-02-15T07:03:40;90.57;;;35.67;;
49241;SDS011;35079;52.704;13.814;2023-02-15T07:06:06;84.00;;;34.58;;
49241;SDS011;35079;52.704;13.814;2023-02-15T07:08:33;106.88;;;38.10;;
49241;SDS011;35079;52.704;13.814;2023-02-15T07:11:00;83.95;;;33.38;;
49241;SDS011;35079;52.704;13.814;2023-02-15T07:13:45;96.25;;;35.30;;
49241;SDS011;35079;52.704;13.814;2023-02-15T07:16:11;86.85;;;34.03;;
49241;SDS011;35079;52.704;13.814;2023-02-15T07:18:37;82.10;;;33.40;;
49241;SDS011;35079;52.704;13.814;2023-02-15T07:21:04;84.18;;;32.60;;
49241;SDS011;35079;52.704;13.814;2023-02-15T07:23:33;81.85;;;32.35;;
49241;SDS011;35079;52.704;13.814;2023-02-15T07:26:02;66.45;;;28.27;;
49241;SDS011;35079;52.704;13.814;2023-02-15T07:28:28;68.45;;;28.45;;
49241;SDS011;35079;52.704;13.814;2023-02-15T07:30:55;72.75;;;28.10;;
49241;SDS011;35079;52.704;13.814;2023-02-15T07:33:20;87.20;;;32.22;;
49241;SDS011;35079;52.704;13.814;2023-02-15T07:35:50;74.03;;;29.65;;
49241;SDS011;35079;52.704;13.814;2023-02-15T07:38:16;69.18;;;28.55;;
49241;SDS011;35079;52.704;13.814;2023-02-15T07:40:43;68.20;;;28.10;;
49241;SDS011;35079;52.704;13.814;2023-02-15T07:43:09;64.53;;;28.52;;
49241;SDS011;35079;52.704;13.814;2023-02-15T07:45:35;57.97;;;25.92;;
49241;SDS011;35079;52.704;13.814;2023-02-15T07:48:01;80.40;;;30.60;;
49241;SDS011;35079;52.704;13.814;2023-02-15T07:50:30;63.78;;;27.83;;
49241;SDS011;35079;52.704;13.814;2023-02-15T07:52:56;69.82;;;26.10;;
49241;SDS011;35079;52.704;13.814;2023-02-15T07:55:23;98.82;;;29.60;;
49241;SDS011;35079;52.704;13.814;2023-02-15T07:57:49;80.80;;;31.23;;
49241;SDS011;35079;52.704;13.814;2023-02-15T08:00:17;102.82;;;34.17;;
49241;SDS011;35079;52.704;13.814;2023-02-15T08:02:53;89.85;;;32.72;;
49241;SDS011;35079;52.704;13.814;2023-02-15T08:05:41;75.22;;;30.95;;
49241;SDS011;35079;52.704;13.814;2023-02-15T08:08:10;131.57;;;35.83;;
49241;SDS011;35079;52.704;13.814;2023-02-15T08:13:46;101.78;;;35.88;;
49241;SDS011;35079;52.704;13.814;2023-02-15T08:16:23;172.43;;;37.33;;
49241;SDS011;35079;52.704;13.814;2023-02-15T08:18:52;126.10;;;36.50;;
49241;SDS011;35079;52.704;13.814;2023-02-15T08:21:19;140.00;;;34.78;;
49241;SDS011;35079;52.704;13.814;2023-02-15T08:23:46;101.72;;;34.50;;
49241;SDS011;35079;52.704;13.814;2023-02-15T08:26:11;89.90;;;33.60;;
49241;SDS011;35079;52.704;13.814;2023-02-15T08:28:37;86.93;;;33.97;;
49241;SDS011;35079;52.704;13.814;2023-02-15T08:31:04;74.03;;;32.40;;
49241;SDS011;35079;52.704;13.814;2023-02-15T08:33:30;79.50;;;32.00;;
49241;SDS011;35079;52.704;13.814;2023-02-15T08:35:56;73.40;;;28.20;;
49241;SDS011;35079;52.704;13.814;2023-02-15T08:38:21;78.88;;;30.00;;
49241;SDS011;35079;52.704;13.814;2023-02-15T08:40:47;77.43;;;29.80;;
49241;SDS011;35079;52.704;13.814;2023-02-15T08:43:12;80.00;;;33.08;;
49241;SDS011;35079;52.704;13.814;2023-02-15T08:45:38;75.13;;;31.33;;
49241;SDS011;35079;52.704;13.814;2023-02-15T08:48:04;64.13;;;28.80;;
49241;SDS011;35079;52.704;13.814;2023-02-15T08:50:33;59.95;;;27.02;;
49241;SDS011;35079;52.704;13.814;2023-02-15T08:52:59;63.58;;;28.00;;
49241;SDS011;35079;52.704;13.814;2023-02-15T08:55:25;56.33;;;26.92;;
49241;SDS011;35079;52.704;13.814;2023-02-15T08:57:50;58.40;;;27.85;;
49241;SDS011;35079;52.704;13.814;2023-02-15T09:00:16;64.40;;;26.45;;
49241;SDS011;35079;52.704;13.814;2023-02-15T09:02:42;64.47;;;27.77;;
49241;SDS011;35079;52.704;13.814;2023-02-15T09:05:07;88.75;;;29.98;;
49241;SDS011;35079;52.704;13.814;2023-02-15T09:07:34;64.22;;;29.67;;
49241;SDS011;35079;52.704;13.814;2023-02-15T09:09:59;71.95;;;29.27;;
49241;SDS011;35079;52.704;13.814;2023-02-15T09:12:25;63.45;;;27.30;;
49241;SDS011;35079;52.704;13.814;2023-02-15T09:14:50;57.90;;;24.67;;
49241;SDS011;35079;52.704;13.814;2023-02-15T09:17:16;71.78;;;30.48;;
49241;SDS011;35079;52.704;13.814;2023-02-15T09:19:42;73.78;;;29.30;;
49241;SDS011;35079;52.704;13.814;2023-02-15T09:22:08;68.47;;;28.05;;
49241;SDS011;35079;52.704;13.814;2023-02-15T09:24:34;79.57;;;28.02;;
49241;SDS011;35079;52.704;13.814;2023-02-15T09:26:59;59.88;;;25.38;;
49241;SDS011;35079;52.704;13.814;2023-02-15T09:29:25;62.00;;;25.45;;
49241;SDS011;35079;52.704;13.814;2023-02-15T09:31:50;59.35;;;25.20;;
49241;SDS011;35079;52.704;13.814;2023-02-15T09:34:19;64.43;;;28.02;;
49241;SDS011;35079;52.704;13.814;2023-02-15T09:36:46;61.47;;;27.58;;
49241;SDS011;35079;52.704;13.814;2023-02-15T09:39:13;68.32;;;27.30;;
49241;SDS011;35079;52.704;13.814;2023-02-15T10:03:38;63.20;;;24.40;;
49241;SDS011;35079;52.704;13.814;2023-02-15T10:11:44;57.10;;;23.88;;
49241;SDS011;35079;52.704;13.814;2023-02-15T10:19:36;72.60;;;28.90;;
49241;SDS011;35079;52.704;13.814;2023-02-15T10:27:17;57.63;;;25.70;;
49241;SDS011;35079;52.704;13.814;2023-02-15T10:29:52;56.80;;;25.40;;
49241;SDS011;35079;52.704;13.814;2023-02-15T10:32:35;44.70;;;23.02;;
49241;SDS011;35079;52.704;13.814;2023-02-15T10:37:54;47.10;;;23.05;;
49241;SDS011;35079;52.704;13.814;2023-02-15T10:40:25;52.20;;;24.40;;
49241;SDS011;35079;52.704;13.814;2023-02-15T10:58:54;47.30;;;23.02;;
49241;SDS011;35079;52.704;13.814;2023-02-15T11:07:32;52.38;;;25.05;;
49241;SDS011;35079;52.704;13.814;2023-02-15T11:12:43;52.63;;;25.98;;
49241;SDS011;35079;52.704;13.814;2023-02-15T11:15:15;62.08;;;28.05;;
49241;SDS011;35079;52.704;13.814;2023-02-15T11:17:52;49.55;;;24.08;;
49241;SDS011;35079;52.704;13.814;2023-02-15T11:20:27;48.88;;;24.65;;
49241;SDS011;35079;52.704;13.814;2023-02-15T11:25:33;50.05;;;25.30;;
49241;SDS011;35079;52.704;13.814;2023-02-15T11:28:00;51.30;;;24.73;;
49241;SDS011;35079;52.704;13.814;2023-02-15T11:30:53;52.50;;;26.55;;
49241;SDS011;35079;52.704;13.814;2023-02-15T11:33:27;49.08;;;24.48;;
49241;SDS011;35079;52.704;13.814;2023-02-15T11:36:00;57.38;;;27.67;;
49241;SDS011;35079;52.704;13.814;2023-02-15T11:38:33;48.58;;;22.60;;
49241;SDS011;35079;52.704;13.814;2023-02-15T11:41:01;43.67;;;23.20;;
49241;SDS011;35079;52.704;13.814;2023-02-15T11:46:20;52.42;;;24.75;;
49241;SDS011;35079;52.704;13.814;2023-02-15T11:48:46;50.45;;;24.15;;
49241;SDS011;35079;52.704;13.814;2023-02-15T11:51:13;52.13;;;25.25;;
49241;SDS011;35079;52.704;13.814;2023-02-15T11:53:41;49.22;;;24.55;;
49241;SDS011;35079;52.704;13.814;2023-02-15T11:56:13;46.40;;;23.35;;
49241;SDS011;35079;52.704;13.814;2023-02-15T11:58:47;53.42;;;27.02;;
49241;SDS011;35079;52.704;13.814;2023-02-15T12:01:33;46.75;;;23.35;;
49241;SDS011;35079;52.704;13.814;2023-02-15T12:04:16;47.20;;;23.63;;
49241;SDS011;35079;52.704;13.814;2023-02-15T12:06:48;49.22;;;25.77;;
49241;SDS011;35079;52.704;13.814;2023-02-15T12:12:22;45.67;;;23.48;;
49241;SDS011;35079;52.704;13.814;2023-02-15T12:14:53;55.38;;;27.27;;
49241;SDS011;35079;52.704;13.814;2023-02-15T12:17:20;50.10;;;25.40;;
49241;SDS011;35079;52.704;13.814;2023-02-15T12:19:48;48.47;;;24.23;;
49241;SDS011;35079;52.704;13.814;2023-02-15T12:22:24;49.92;;;25.95;;
49241;SDS011;35079;52.704;13.814;2023-02-15T12:24:54;48.10;;;25.65;;
49241;SDS011;35079;52.704;13.814;2023-02-15T12:27:25;41.47;;;22.77;;
49241;SDS011;35079;52.704;13.814;2023-02-15T12:29:56;52.03;;;24.70;;
49241;SDS011;35079;52.704;13.814;2023-02-15T12:32:28;51.80;;;25.08;;
49241;SDS011;35079;52.704;13.814;2023-02-15T12:35:16;42.58;;;22.17;;
49241;SDS011;35079;52.704;13.814;2023-02-15T12:37:57;45.97;;;23.05;;
49241;SDS011;35079;52.704;13.814;2023-02-15T12:43:08;44.83;;;23.90;;
49241;SDS011;35079;52.704;13.814;2023-02-15T12:45:50;44.40;;;23.27;;
49241;SDS011;35079;52.704;13.814;2023-02-15T12:48:17;46.20;;;24.65;;
49241;SDS011;35079;52.704;13.814;2023-02-15T12:50:46;42.40;;;24.48;;
49241;SDS011;35079;52.704;13.814;2023-02-15T12:55:56;50.83;;;26.55;;
49241;SDS011;35079;52.704;13.814;2023-02-15T12:58:25;48.42;;;24.92;;
49241;SDS011;35079;52.704;13.814;2023-02-15T13:03:51;50.85;;;25.08;;
49241;SDS011;35079;52.704;13.814;2023-02-15T13:06:22;45.47;;;22.17;;
49241;SDS011;35079;52.704;13.814;2023-02-15T13:08:49;46.58;;;24.63;;
49241;SDS011;35079;52.704;13.814;2023-02-15T13:11:26;49.83;;;25.45;;
49241;SDS011;35079;52.704;13.814;2023-02-15T13:14:00;45.28;;;22.45;;
49241;SDS011;35079;52.704;13.814;2023-02-15T13:16:31;45.72;;;24.38;;
49241;SDS011;35079;52.704;13.814;2023-02-15T13:19:02;47.33;;;24.73;;
49241;SDS011;35079;52.704;13.814;2023-02-15T13:21:33;44.50;;;22.67;;
49241;SDS011;35079;52.704;13.814;2023-02-15T13:24:10;45.10;;;24.67;;
49241;SDS011;35079;52.704;13.814;2023-02-15T13:26:46;50.20;;;26.45;;
49241;SDS011;35079;52.704;13.814;2023-02-15T13:29:22;50.50;;;25.35;;
49241;SDS011;35079;52.704;13.814;2023-02-15T13:32:05;45.35;;;24.08;;
49241;SDS011;35079;52.704;13.814;2023-02-15T13:34:36;41.38;;;21.83;;
49241;SDS011;35079;52.704;13.814;2023-02-15T13:37:15;44.38;;;23.80;;
49241;SDS011;35079;52.704;13.814;2023-02-15T13:52:50;36.95;;;19.92;;
49241;SDS011;35079;52.704;13.814;2023-02-15T13:59:15;40.42;;;20.73;;
49241;SDS011;35079;52.704;13.814;2023-02-15T14:20:14;36.00;;;19.52;;
49241;SDS011;35079;52.704;13.814;2023-02-15T14:23:29;38.50;;;19.20;;
49241;SDS011;35079;52.704;13.814;2023-02-15T14:25:54;37.95;;;19.17;;
49241;SDS011;35079;52.704;13.814;2023-02-15T14:28:35;40.40;;;21.27;;
49241;SDS011;35079;52.704;13.814;2023-02-15T14:31:18;40.35;;;22.08;;
49241;SDS011;35079;52.704;13.814;2023-02-15T14:33:55;39.28;;;21.15;;
49241;SDS011;35079;52.704;13.814;2023-02-15T14:36:22;37.03;;;20.40;;
49241;SDS011;35079;52.704;13.814;2023-02-15T14:38:59;36.10;;;20.48;;
49241;SDS011;35079;52.704;13.814;2023-02-15T14:44:11;39.08;;;20.65;;
49241;SDS011;35079;52.704;13.814;2023-02-15T14:47:10;39.03;;;20.08;;
49241;SDS011;35079;52.704;13.814;2023-02-15T14:49:44;35.92;;;19.58;;
49241;SDS011;35079;52.704;13.814;2023-02-15T14:52:10;46.15;;;21.67;;
49241;SDS011;35079;52.704;13.814;2023-02-15T15:08:01;44.55;;;26.55;;
49241;SDS011;35079;52.704;13.814;2023-02-15T15:10:40;40.58;;;23.40;;
49241;SDS011;35079;52.704;13.814;2023-02-15T15:18:53;37.95;;;19.83;;
49241;SDS011;35079;52.704;13.814;2023-02-15T15:30:48;40.00;;;21.30;;
49241;SDS011;35079;52.704;13.814;2023-02-15T15:32:54;39.50;;;20.98;;
49241;SDS011;35079;52.704;13.814;2023-02-15T15:41:29;36.38;;;19.98;;
49241;SDS011;35079;52.704;13.814;2023-02-15T15:44:06;38.85;;;20.13;;
49241;SDS011;35079;52.704;13.814;2023-02-15T15:49:41;38.40;;;20.30;;
49241;SDS011;35079;52.704;13.814;2023-02-15T15:52:25;36.78;;;20.08;;
49241;SDS011;35079;52.704;13.814;2023-02-15T15:54:55;35.85;;;19.92;;
49241;SDS011;35079;52.704;13.814;2023-02-15T15:57:28;36.92;;;18.90;;
49241;SDS011;35079;52.704;13.814;2023-02-15T15:59:58;35.05;;;19.25;;
49241;SDS011;35079;52.704;13.814;2023-02-15T16:02:24;37.08;;;18.38;;
49241;SDS011;35079;52.704;13.814;2023-02-15T16:04:50;37.45;;;19.30;;
49241;SDS011;35079;52.704;13.814;2023-02-15T16:10:03;35.72;;;19.10;;
49241;SDS011;35079;52.704;13.814;2023-02-15T16:12:31;37.85;;;18.17;;
49241;SDS011;35079;52.704;13.814;2023-02-15T16:15:02;33.13;;;18.45;;
49241;SDS011;35079;52.704;13.814;2023-02-15T16:17:38;34.85;;;18.98;;
49241;SDS011;35079;52.704;13.814;2023-02-15T16:20:17;32.33;;;18.10;;
49241;SDS011;35079;52.704;13.814;2023-02-15T16:23:01;36.47;;;18.65;;
49241;SDS011;35079;52.704;13.814;2023-02-15T16:28:32;36.55;;;19.13;;
49241;SDS011;35079;52.704;13.814;2023-02-15T16:31:14;37.70;;;19.02;;
49241;SDS011;35079;52.704;13.814;2023-02-15T16:33:41;33.67;;;18.05;;
49241;SDS011;35079;52.704;13.814;2023-02-15T16:36:20;36.53;;;18.70;;
49241;SDS011;35079;52.704;13.814;2023-02-15T16:41:30;37.83;;;19.77;;
49241;SDS011;35079;52.704;13.814;2023-02-15T16:43:57;30.83;;;17.85;;
49241;SDS011;35079;52.704;13.814;2023-02-15T16:46:31;42.30;;;20.38;;
49241;SDS011;35079;52.704;13.814;2023-02-15T16:49:02;52.35;;;23.17;;
49241;SDS011;35079;52.704;13.814;2023-02-15T16:51:33;44.65;;;22.30;;
49241;SDS011;35079;52.704;13.814;2023-02-15T16:54:07;44.03;;;22.27;;
49241;SDS011;35079;52.704;13.814;2023-02-15T16:56:40;43.47;;;22.55;;
49241;SDS011;35079;52.704;13.814;2023-02-15T16:59:16;54.75;;;27.33;;
49241;SDS011;35079;52.704;13.814;2023-02-15T17:01:52;51.38;;;28.25;;
49241;SDS011;35079;52.704;13.814;2023-02-15T17:07:20;45.80;;;24.50;;
49241;SDS011;35079;52.704;13.814;2023-02-15T17:09:48;44.25;;;24.05;;
49241;SDS011;35079;52.704;13.814;2023-02-15T17:15:32;39.67;;;21.92;;
49241;SDS011;35079;52.704;13.814;2023-02-15T17:18:00;40.95;;;21.58;;
49241;SDS011;35079;52.704;13.814;2023-02-15T17:23:45;44.00;;;20.00;;
49241;SDS011;35079;52.704;13.814;2023-02-15T17:26:14;37.17;;;18.80;;
49241;SDS011;35079;52.704;13.814;2023-02-15T17:28:48;34.50;;;19.27;;
49241;SDS011;35079;52.704;13.814;2023-02-15T17:31:19;36.42;;;19.35;;
49241;SDS011;35079;52.704;13.814;2023-02-15T17:33:46;36.78;;;19.40;;
49241;SDS011;35079;52.704;13.814;2023-02-15T17:36:21;37.72;;;20.08;;
49241;SDS011;35079;52.704;13.814;2023-02-15T17:41:23;41.78;;;20.77;;
49241;SDS011;35079;52.704;13.814;2023-02-15T17:43:50;41.80;;;19.77;;
49241;SDS011;35079;52.704;13.814;2023-02-15T17:46:15;57.28;;;23.52;;
49241;SDS011;35079;52.704;13.814;2023-02-15T17:48:45;44.72;;;22.10;;
49241;SDS011;35079;52.704;13.814;2023-02-15T17:51:12;48.00;;;22.00;;
49241;SDS011;35079;52.704;13.814;2023-02-15T17:53:39;36.72;;;19.25;;